sensor_id;sensor_type;location;lat;lon;timestamp;P1;durP1;ratioP1;P2;durP2;ratioP2
32172;SDS011;18679;45.190;5.722;2023-10-08T00:02:50;14.52;;;4.43;;
32172;SDS011;18679;45.190;5.722;2023-10-08T00:05:52;10.38;;;4.82;;
32172;SDS011;18679;45.190;5.722;2023-10-08T00:08:53;10.65;;;4.50;;
32172;SDS011;18679;45.190;5.722;2023-10-08T00:12:00;12.23;;;4.78;;
32172;SDS011;18679;45.190;5.722;2023-10-08T00:15:01;10.05;;;4.25;;
32172;SDS011;18679;45.190;5.722;2023-10-08T00:18:07;9.60;;;4.78;;
32172;SDS011;18679;45.190;5.722;2023-10-08T00:21:11;11.65;;;4.90;;
32172;SDS011;18679;45.190;5.722;2023-10-08T00:24:12;9.48;;;4.25;;
32172;SDS011;18679;45.190;5.722;2023-10-08T00:27:13;10.27;;;4.15;;
32172;SDS011;18679;45.190;5.722;2023-10-08T00:30:15;9.13;;;3.60;;
32172;SDS011;18679;45.190;5.722;2023-10-08T00:33:18;11.00;;;3.80;;
32172;SDS011;18679;45.190;5.722;2023-10-08T00:36:19;8.95;;;4.28;;
32172;SDS011;18679;45.190;5.722;2023-10-08T00:39:20;8.35;;;3.35;;
32172;SDS011;18679;45.190;5.722;2023-10-08T00:42:24;9.50;;;3.70;;
32172;SDS011;18679;45.190;5.722;2023-10-08T00:45:25;9.68;;;4.60;;
32172;SDS011;18679;45.190;5.722;2023-10-08T00:48:30;8.88;;;3.60;;
32172;SDS011;18679;45.190;5.722;2023-10-08T00:51:36;7.38;;;3.42;;
32172;SDS011;18679;45.190;5.722;2023-10-08T00:54:41;7.57;;;3.80;;
32172;SDS011;18679;45.190;5.722;2023-10-08T00:57:51;7.53;;;3.92;;
32172;SDS011;18679;45.190;5.722;2023-10-08T01:01:12;8.18;;;4.10;;
32172;SDS011;18679;45.190;5.722;2023-10-08T01:04:23;12.02;;;4.30;;
32172;SDS011;18679;45.190;5.722;2023-10-08T01:07:26;9.60;;;3.80;;
32172;SDS011;18679;45.190;5.722;2023-10-08T01:10:28;11.25;;;4.60;;
32172;SDS011;18679;45.190;5.722;2023-10-08T01:13:30;16.50;;;4.82;;
32172;SDS011;18679;45.190;5.722;2023-10-08T01:16:36;7.53;;;3.63;;
32172;SDS011;18679;45.190;5.722;2023-10-08T01:19:39;11.60;;;4.40;;
32172;SDS011;18679;45.190;5.722;2023-10-08T01:22:40;16.83;;;4.15;;
32172;SDS011;18679;45.190;5.722;2023-10-08T01:25:41;15.20;;;4.40;;
32172;SDS011;18679;45.190;5.722;2023-10-08T01:28:43;15.98;;;4.32;;
32172;SDS011;18679;45.190;5.722;2023-10-08T01:31:44;10.75;;;4.97;;
32172;SDS011;18679;45.190;5.722;2023-10-08T01:34:46;9.98;;;3.83;;
32172;SDS011;18679;45.190;5.722;2023-10-08T01:37:47;15.30;;;4.55;;
32172;SDS011;18679;45.190;5.722;2023-10-08T01:40:49;8.68;;;4.10;;
32172;SDS011;18679;45.190;5.722;2023-10-08T01:43:51;8.73;;;3.95;;
32172;SDS011;18679;45.190;5.722;2023-10-08T01:46:54;10.60;;;4.95;;
32172;SDS011;18679;45.190;5.722;2023-10-08T01:49:58;16.50;;;4.53;;
32172;SDS011;18679;45.190;5.722;2023-10-08T01:53:05;19.35;;;7.60;;
32172;SDS011;18679;45.190;5.722;2023-10-08T01:56:10;34.03;;;11.93;;
32172;SDS011;18679;45.190;5.722;2023-10-08T01:59:11;71.97;;;23.00;;
32172;SDS011;18679;45.190;5.722;2023-10-08T02:02:14;51.25;;;17.85;;
32172;SDS011;18679;45.190;5.722;2023-10-08T02:05:17;26.15;;;10.60;;
32172;SDS011;18679;45.190;5.722;2023-10-08T02:08:19;22.20;;;7.28;;
32172;SDS011;18679;45.190;5.722;2023-10-08T02:11:21;12.82;;;5.97;;
32172;SDS011;18679;45.190;5.722;2023-10-08T02:14:23;9.68;;;4.85;;
32172;SDS011;18679;45.190;5.722;2023-10-08T02:17:24;9.95;;;5.18;;
32172;SDS011;18679;45.190;5.722;2023-10-08T02:20:25;8.65;;;4.65;;
32172;SDS011;18679;45.190;5.722;2023-10-08T02:23:27;12.32;;;3.50;;
32172;SDS011;18679;45.190;5.722;2023-10-08T02:26:29;7.10;;;3.63;;
32172;SDS011;18679;45.190;5.722;2023-10-08T02:29:31;7.63;;;3.45;;
32172;SDS011;18679;45.190;5.722;2023-10-08T02:32:32;9.23;;;3.92;;
32172;SDS011;18679;45.190;5.722;2023-10-08T02:35:33;9.35;;;4.20;;
32172;SDS011;18679;45.190;5.722;2023-10-08T02:38:34;7.88;;;3.88;;
32172;SDS011;18679;45.190;5.722;2023-10-08T02:41:37;15.23;;;3.90;;
32172;SDS011;18679;45.190;5.722;2023-10-08T02:44:41;9.43;;;4.13;;
32172;SDS011;18679;45.190;5.722;2023-10-08T02:47:43;7.82;;;3.38;;
32172;SDS011;18679;45.190;5.722;2023-10-08T02:50:46;10.35;;;4.03;;
32172;SDS011;18679;45.190;5.722;2023-10-08T02:53:47;7.53;;;4.20;;
32172;SDS011;18679;45.190;5.722;2023-10-08T02:56:51;10.45;;;3.30;;
32172;SDS011;18679;45.190;5.722;2023-10-08T02:59:57;6.07;;;3.07;;
32172;SDS011;18679;45.190;5.722;2023-10-08T03:02:59;7.70;;;4.15;;
32172;SDS011;18679;45.190;5.722;2023-10-08T03:06:02;10.65;;;3.47;;
32172;SDS011;18679;45.190;5.722;2023-10-08T03:09:04;7.53;;;3.47;;
32172;SDS011;18679;45.190;5.722;2023-10-08T03:12:04;9.40;;;3.72;;
32172;SDS011;18679;45.190;5.722;2023-10-08T03:15:09;6.80;;;3.25;;
32172;SDS011;18679;45.190;5.722;2023-10-08T03:18:14;8.18;;;4.18;;
32172;SDS011;18679;45.190;5.722;2023-10-08T03:21:15;9.48;;;4.18;;
32172;SDS011;18679;45.190;5.722;2023-10-08T03:24:33;7.97;;;4.07;;
32172;SDS011;18679;45.190;5.722;2023-10-08T03:27:34;11.10;;;5.18;;
32172;SDS011;18679;45.190;5.722;2023-10-08T03:30:42;9.43;;;4.20;;
32172;SDS011;18679;45.190;5.722;2023-10-08T03:33:50;9.63;;;4.90;;
32172;SDS011;18679;45.190;5.722;2023-10-08T03:36:52;9.80;;;4.43;;
32172;SDS011;18679;45.190;5.722;2023-10-08T03:39:59;9.13;;;4.27;;
32172;SDS011;18679;45.190;5.722;2023-10-08T03:43:01;9.02;;;4.25;;
32172;SDS011;18679;45.190;5.722;2023-10-08T03:46:02;11.15;;;4.18;;
32172;SDS011;18679;45.190;5.722;2023-10-08T03:49:06;12.20;;;5.07;;
32172;SDS011;18679;45.190;5.722;2023-10-08T03:52:14;9.43;;;4.65;;
32172;SDS011;18679;45.190;5.722;2023-10-08T03:55:15;10.80;;;5.35;;
32172;SDS011;18679;45.190;5.722;2023-10-08T03:58:19;11.98;;;4.45;;
32172;SDS011;18679;45.190;5.722;2023-10-08T04:01:29;9.13;;;4.65;;
32172;SDS011;18679;45.190;5.722;2023-10-08T04:04:33;10.75;;;4.03;;
32172;SDS011;18679;45.190;5.722;2023-10-08T04:07:53;10.45;;;4.55;;
32172;SDS011;18679;45.190;5.722;2023-10-08T04:11:00;8.30;;;3.85;;
32172;SDS011;18679;45.190;5.722;2023-10-08T04:14:19;10.65;;;4.15;;
32172;SDS011;18679;45.190;5.722;2023-10-08T04:17:21;10.80;;;4.47;;
32172;SDS011;18679;45.190;5.722;2023-10-08T04:20:22;9.75;;;4.75;;
32172;SDS011;18679;45.190;5.722;2023-10-08T04:23:41;9.55;;;4.20;;
32172;SDS011;18679;45.190;5.722;2023-10-08T04:26:45;7.80;;;3.53;;
32172;SDS011;18679;45.190;5.722;2023-10-08T04:29:45;16.08;;;4.70;;
32172;SDS011;18679;45.190;5.722;2023-10-08T04:32:50;8.27;;;4.43;;
32172;SDS011;18679;45.190;5.722;2023-10-08T04:35:52;9.13;;;4.07;;
32172;SDS011;18679;45.190;5.722;2023-10-08T04:38:56;11.38;;;4.22;;
32172;SDS011;18679;45.190;5.722;2023-10-08T04:42:04;9.25;;;4.30;;
32172;SDS011;18679;45.190;5.722;2023-10-08T04:45:12;10.80;;;4.65;;
32172;SDS011;18679;45.190;5.722;2023-10-08T04:48:13;14.30;;;5.20;;
32172;SDS011;18679;45.190;5.722;2023-10-08T04:51:20;13.93;;;4.93;;
32172;SDS011;18679;45.190;5.722;2023-10-08T04:54:24;10.40;;;4.35;;
32172;SDS011;18679;45.190;5.722;2023-10-08T04:57:31;9.48;;;4.03;;
32172;SDS011;18679;45.190;5.722;2023-10-08T05:00:34;16.58;;;4.75;;
32172;SDS011;18679;45.190;5.722;2023-10-08T05:03:54;10.90;;;4.18;;
32172;SDS011;18679;45.190;5.722;2023-10-08T05:06:58;15.95;;;4.93;;
32172;SDS011;18679;45.190;5.722;2023-10-08T05:10:17;7.72;;;4.30;;
32172;SDS011;18679;45.190;5.722;2023-10-08T05:13:23;9.98;;;4.43;;
32172;SDS011;18679;45.190;5.722;2023-10-08T05:16:33;8.18;;;3.95;;
32172;SDS011;18679;45.190;5.722;2023-10-08T05:19:43;10.32;;;4.40;;
32172;SDS011;18679;45.190;5.722;2023-10-08T05:23:17;10.68;;;4.10;;
32172;SDS011;18679;45.190;5.722;2023-10-08T05:26:24;9.65;;;3.80;;
32172;SDS011;18679;45.190;5.722;2023-10-08T05:29:41;8.40;;;4.13;;
32172;SDS011;18679;45.190;5.722;2023-10-08T05:33:14;9.65;;;4.07;;
32172;SDS011;18679;45.190;5.722;2023-10-08T05:36:25;12.70;;;4.13;;
32172;SDS011;18679;45.190;5.722;2023-10-08T05:39:36;12.27;;;5.07;;
32172;SDS011;18679;45.190;5.722;2023-10-08T05:42:42;7.00;;;3.67;;
32172;SDS011;18679;45.190;5.722;2023-10-08T05:46:01;8.65;;;3.78;;
32172;SDS011;18679;45.190;5.722;2023-10-08T05:49:21;18.27;;;5.57;;
32172;SDS011;18679;45.190;5.722;2023-10-08T05:52:31;9.93;;;4.05;;
32172;SDS011;18679;45.190;5.722;2023-10-08T05:59:01;10.40;;;3.60;;
32172;SDS011;18679;45.190;5.722;2023-10-08T06:02:15;10.38;;;4.20;;
32172;SDS011;18679;45.190;5.722;2023-10-08T06:05:34;9.43;;;3.95;;
32172;SDS011;18679;45.190;5.722;2023-10-08T06:08:43;8.57;;;4.43;;
32172;SDS011;18679;45.190;5.722;2023-10-08T06:12:06;9.68;;;4.72;;
32172;SDS011;18679;45.190;5.722;2023-10-08T06:15:10;8.38;;;3.95;;
32172;SDS011;18679;45.190;5.722;2023-10-08T06:18:12;10.73;;;3.97;;
32172;SDS011;18679;45.190;5.722;2023-10-08T06:21:14;12.07;;;4.22;;
32172;SDS011;18679;45.190;5.722;2023-10-08T06:24:15;10.50;;;4.18;;
32172;SDS011;18679;45.190;5.722;2023-10-08T06:27:17;7.78;;;4.30;;
32172;SDS011;18679;45.190;5.722;2023-10-08T06:30:20;8.98;;;4.22;;
32172;SDS011;18679;45.190;5.722;2023-10-08T06:33:22;9.88;;;3.33;;
32172;SDS011;18679;45.190;5.722;2023-10-08T06:36:25;9.15;;;4.07;;
32172;SDS011;18679;45.190;5.722;2023-10-08T06:39:28;14.75;;;4.20;;
32172;SDS011;18679;45.190;5.722;2023-10-08T06:45:51;9.20;;;4.20;;
32172;SDS011;18679;45.190;5.722;2023-10-08T06:48:52;10.38;;;4.05;;
32172;SDS011;18679;45.190;5.722;2023-10-08T06:51:54;18.70;;;4.75;;
32172;SDS011;18679;45.190;5.722;2023-10-08T06:54:55;10.25;;;4.50;;
32172;SDS011;18679;45.190;5.722;2023-10-08T06:57:56;9.48;;;4.25;;
32172;SDS011;18679;45.190;5.722;2023-10-08T07:00:56;14.85;;;4.78;;
32172;SDS011;18679;45.190;5.722;2023-10-08T07:03:58;11.82;;;4.53;;
32172;SDS011;18679;45.190;5.722;2023-10-08T07:07:06;10.88;;;3.97;;
32172;SDS011;18679;45.190;5.722;2023-10-08T07:10:09;8.60;;;3.80;;
32172;SDS011;18679;45.190;5.722;2023-10-08T07:13:11;16.95;;;4.75;;
32172;SDS011;18679;45.190;5.722;2023-10-08T07:16:11;8.05;;;4.05;;
32172;SDS011;18679;45.190;5.722;2023-10-08T07:19:12;9.55;;;4.30;;
32172;SDS011;18679;45.190;5.722;2023-10-08T07:22:17;19.17;;;4.97;;
32172;SDS011;18679;45.190;5.722;2023-10-08T07:25:22;13.05;;;5.07;;
32172;SDS011;18679;45.190;5.722;2023-10-08T07:28:23;11.27;;;4.95;;
32172;SDS011;18679;45.190;5.722;2023-10-08T07:31:25;12.88;;;4.85;;
32172;SDS011;18679;45.190;5.722;2023-10-08T07:34:29;8.95;;;4.47;;
32172;SDS011;18679;45.190;5.722;2023-10-08T07:37:31;11.05;;;4.25;;
32172;SDS011;18679;45.190;5.722;2023-10-08T07:40:32;13.07;;;4.78;;
32172;SDS011;18679;45.190;5.722;2023-10-08T07:43:37;12.40;;;5.28;;
32172;SDS011;18679;45.190;5.722;2023-10-08T07:46:38;12.23;;;4.78;;
32172;SDS011;18679;45.190;5.722;2023-10-08T07:49:39;10.40;;;4.88;;
32172;SDS011;18679;45.190;5.722;2023-10-08T07:52:43;11.18;;;4.50;;
32172;SDS011;18679;45.190;5.722;2023-10-08T07:55:45;13.38;;;4.45;;
32172;SDS011;18679;45.190;5.722;2023-10-08T07:58:49;15.93;;;4.72;;
32172;SDS011;18679;45.190;5.722;2023-10-08T08:01:56;11.10;;;4.17;;
32172;SDS011;18679;45.190;5.722;2023-10-08T08:04:57;9.13;;;4.05;;
32172;SDS011;18679;45.190;5.722;2023-10-08T08:07:58;9.05;;;4.32;;
32172;SDS011;18679;45.190;5.722;2023-10-08T08:11:06;12.32;;;4.22;;
32172;SDS011;18679;45.190;5.722;2023-10-08T08:14:13;10.35;;;3.85;;
32172;SDS011;18679;45.190;5.722;2023-10-08T08:17:24;14.48;;;3.97;;
32172;SDS011;18679;45.190;5.722;2023-10-08T08:20:25;11.05;;;4.50;;
32172;SDS011;18679;45.190;5.722;2023-10-08T08:23:39;11.00;;;4.13;;
32172;SDS011;18679;45.190;5.722;2023-10-08T08:26:40;11.73;;;4.25;;
32172;SDS011;18679;45.190;5.722;2023-10-08T08:30:01;9.57;;;3.88;;
32172;SDS011;18679;45.190;5.722;2023-10-08T08:33:15;10.35;;;4.10;;
32172;SDS011;18679;45.190;5.722;2023-10-08T08:36:23;10.20;;;3.88;;
32172;SDS011;18679;45.190;5.722;2023-10-08T08:39:24;9.13;;;4.38;;
32172;SDS011;18679;45.190;5.722;2023-10-08T08:42:28;10.07;;;4.03;;
32172;SDS011;18679;45.190;5.722;2023-10-08T08:45:31;11.68;;;3.95;;
32172;SDS011;18679;45.190;5.722;2023-10-08T08:48:35;10.98;;;4.80;;
32172;SDS011;18679;45.190;5.722;2023-10-08T08:51:38;19.23;;;6.40;;
32172;SDS011;18679;45.190;5.722;2023-10-08T08:54:41;18.45;;;6.50;;
32172;SDS011;18679;45.190;5.722;2023-10-08T08:57:42;6.30;;;3.55;;
32172;SDS011;18679;45.190;5.722;2023-10-08T09:00:48;9.75;;;4.15;;
32172;SDS011;18679;45.190;5.722;2023-10-08T09:03:58;12.40;;;3.60;;
32172;SDS011;18679;45.190;5.722;2023-10-08T09:07:01;15.45;;;4.20;;
32172;SDS011;18679;45.190;5.722;2023-10-08T09:10:05;10.07;;;3.80;;
32172;SDS011;18679;45.190;5.722;2023-10-08T09:13:12;8.85;;;3.47;;
32172;SDS011;18679;45.190;5.722;2023-10-08T09:16:14;9.52;;;3.83;;
32172;SDS011;18679;45.190;5.722;2023-10-08T09:19:16;18.15;;;7.22;;
32172;SDS011;18679;45.190;5.722;2023-10-08T09:22:22;18.95;;;7.40;;
32172;SDS011;18679;45.190;5.722;2023-10-08T09:25:23;9.10;;;3.72;;
32172;SDS011;18679;45.190;5.722;2023-10-08T09:28:25;9.23;;;3.92;;
32172;SDS011;18679;45.190;5.722;2023-10-08T09:31:26;11.20;;;4.55;;
32172;SDS011;18679;45.190;5.722;2023-10-08T09:34:35;20.35;;;7.43;;
32172;SDS011;18679;45.190;5.722;2023-10-08T09:37:36;19.45;;;5.97;;
32172;SDS011;18679;45.190;5.722;2023-10-08T09:40:39;15.30;;;5.55;;
32172;SDS011;18679;45.190;5.722;2023-10-08T09:43:44;11.82;;;3.67;;
32172;SDS011;18679;45.190;5.722;2023-10-08T09:46:48;13.65;;;5.68;;
32172;SDS011;18679;45.190;5.722;2023-10-08T09:49:56;22.85;;;8.95;;
32172;SDS011;18679;45.190;5.722;2023-10-08T09:57:02;10.85;;;4.47;;
32172;SDS011;18679;45.190;5.722;2023-10-08T10:00:12;9.20;;;3.90;;
32172;SDS011;18679;45.190;5.722;2023-10-08T10:03:15;13.15;;;5.55;;
32172;SDS011;18679;45.190;5.722;2023-10-08T10:06:19;10.40;;;4.93;;
32172;SDS011;18679;45.190;5.722;2023-10-08T10:09:20;19.80;;;5.72;;
32172;SDS011;18679;45.190;5.722;2023-10-08T10:12:25;11.13;;;4.07;;
32172;SDS011;18679;45.190;5.722;2023-10-08T10:15:27;9.05;;;3.65;;
32172;SDS011;18679;45.190;5.722;2023-10-08T10:18:32;14.70;;;5.30;;
32172;SDS011;18679;45.190;5.722;2023-10-08T10:21:34;13.65;;;4.80;;
32172;SDS011;18679;45.190;5.722;2023-10-08T10:24:35;14.35;;;6.40;;
32172;SDS011;18679;45.190;5.722;2023-10-08T10:27:42;10.85;;;4.60;;
32172;SDS011;18679;45.190;5.722;2023-10-08T10:31:18;10.15;;;3.47;;
32172;SDS011;18679;45.190;5.722;2023-10-08T10:34:28;12.57;;;3.70;;
32172;SDS011;18679;45.190;5.722;2023-10-08T10:37:30;8.77;;;3.35;;
32172;SDS011;18679;45.190;5.722;2023-10-08T10:40:53;9.23;;;4.05;;
32172;SDS011;18679;45.190;5.722;2023-10-08T10:43:59;9.80;;;3.60;;
32172;SDS011;18679;45.190;5.722;2023-10-08T10:47:08;6.35;;;3.13;;
32172;SDS011;18679;45.190;5.722;2023-10-08T10:50:18;6.97;;;3.38;;
32172;SDS011;18679;45.190;5.722;2023-10-08T10:53:36;12.10;;;4.95;;
32172;SDS011;18679;45.190;5.722;2023-10-08T10:56:45;8.13;;;3.80;;
32172;SDS011;18679;45.190;5.722;2023-10-08T10:59:47;12.93;;;3.70;;
32172;SDS011;18679;45.190;5.722;2023-10-08T11:02:53;10.07;;;4.03;;
32172;SDS011;18679;45.190;5.722;2023-10-08T11:06:00;9.05;;;3.28;;
32172;SDS011;18679;45.190;5.722;2023-10-08T11:09:06;8.82;;;3.55;;
32172;SDS011;18679;45.190;5.722;2023-10-08T11:12:14;7.35;;;3.00;;
32172;SDS011;18679;45.190;5.722;2023-10-08T11:15:19;7.47;;;3.33;;
32172;SDS011;18679;45.190;5.722;2023-10-08T11:18:24;6.93;;;3.17;;
32172;SDS011;18679;45.190;5.722;2023-10-08T11:21:31;6.13;;;3.05;;
32172;SDS011;18679;45.190;5.722;2023-10-08T11:58:48;10.82;;;3.22;;
32172;SDS011;18679;45.190;5.722;2023-10-08T12:01:49;6.93;;;3.50;;
32172;SDS011;18679;45.190;5.722;2023-10-08T12:04:51;7.93;;;3.17;;
32172;SDS011;18679;45.190;5.722;2023-10-08T12:07:52;11.18;;;4.03;;
32172;SDS011;18679;45.190;5.722;2023-10-08T12:10:58;8.93;;;3.20;;
32172;SDS011;18679;45.190;5.722;2023-10-08T12:14:00;8.63;;;3.70;;
32172;SDS011;18679;45.190;5.722;2023-10-08T12:17:01;8.40;;;3.30;;
32172;SDS011;18679;45.190;5.722;2023-10-08T12:20:11;8.20;;;3.58;;
32172;SDS011;18679;45.190;5.722;2023-10-08T12:23:32;11.50;;;3.17;;
32172;SDS011;18679;45.190;5.722;2023-10-08T12:26:34;8.82;;;3.17;;
32172;SDS011;18679;45.190;5.722;2023-10-08T12:29:35;8.68;;;3.22;;
32172;SDS011;18679;45.190;5.722;2023-10-08T12:32:36;11.60;;;3.22;;
32172;SDS011;18679;45.190;5.722;2023-10-08T12:35:42;10.13;;;3.85;;
32172;SDS011;18679;45.190;5.722;2023-10-08T12:38:44;11.10;;;4.70;;
32172;SDS011;18679;45.190;5.722;2023-10-08T12:41:48;9.50;;;3.42;;
32172;SDS011;18679;45.190;5.722;2023-10-08T12:44:48;7.55;;;3.72;;
32172;SDS011;18679;45.190;5.722;2023-10-08T12:47:49;8.23;;;3.08;;
32172;SDS011;18679;45.190;5.722;2023-10-08T12:50:51;13.25;;;3.67;;
32172;SDS011;18679;45.190;5.722;2023-10-08T12:53:53;6.97;;;3.97;;
32172;SDS011;18679;45.190;5.722;2023-10-08T12:57:04;7.57;;;3.28;;
32172;SDS011;18679;45.190;5.722;2023-10-08T13:00:09;10.82;;;4.65;;
32172;SDS011;18679;45.190;5.722;2023-10-08T13:03:10;8.13;;;4.45;;
32172;SDS011;18679;45.190;5.722;2023-10-08T13:06:19;9.60;;;4.45;;
32172;SDS011;18679;45.190;5.722;2023-10-08T13:12:24;9.45;;;3.58;;
32172;SDS011;18679;45.190;5.722;2023-10-08T13:15:25;10.27;;;3.67;;
32172;SDS011;18679;45.190;5.722;2023-10-08T13:18:26;5.88;;;3.10;;
32172;SDS011;18679;45.190;5.722;2023-10-08T13:21:27;10.75;;;3.40;;
32172;SDS011;18679;45.190;5.722;2023-10-08T13:24:28;9.85;;;3.55;;
32172;SDS011;18679;45.190;5.722;2023-10-08T13:27:29;12.27;;;3.63;;
32172;SDS011;18679;45.190;5.722;2023-10-08T13:30:31;6.55;;;3.53;;
32172;SDS011;18679;45.190;5.722;2023-10-08T13:33:33;7.97;;;4.78;;
32172;SDS011;18679;45.190;5.722;2023-10-08T13:36:34;8.93;;;3.75;;
32172;SDS011;18679;45.190;5.722;2023-10-08T13:39:38;7.50;;;3.47;;
32172;SDS011;18679;45.190;5.722;2023-10-08T13:42:41;7.60;;;3.22;;
32172;SDS011;18679;45.190;5.722;2023-10-08T13:45:42;7.15;;;3.53;;
32172;SDS011;18679;45.190;5.722;2023-10-08T13:48:45;16.77;;;3.58;;
32172;SDS011;18679;45.190;5.722;2023-10-08T13:51:48;14.48;;;3.35;;
32172;SDS011;18679;45.190;5.722;2023-10-08T13:54:56;7.90;;;3.30;;
32172;SDS011;18679;45.190;5.722;2023-10-08T13:57:59;8.15;;;3.55;;
32172;SDS011;18679;45.190;5.722;2023-10-08T14:01:01;10.73;;;4.30;;
32172;SDS011;18679;45.190;5.722;2023-10-08T14:04:18;5.27;;;3.10;;
32172;SDS011;18679;45.190;5.722;2023-10-08T14:07:27;8.13;;;3.22;;
32172;SDS011;18679;45.190;5.722;2023-10-08T14:10:28;12.27;;;3.35;;
32172;SDS011;18679;45.190;5.722;2023-10-08T14:13:30;15.90;;;2.92;;
32172;SDS011;18679;45.190;5.722;2023-10-08T14:16:35;5.72;;;2.67;;
32172;SDS011;18679;45.190;5.722;2023-10-08T14:19:42;6.85;;;2.72;;
32172;SDS011;18679;45.190;5.722;2023-10-08T14:22:46;11.45;;;4.07;;
32172;SDS011;18679;45.190;5.722;2023-10-08T14:25:52;7.72;;;2.95;;
32172;SDS011;18679;45.190;5.722;2023-10-08T14:28:58;7.50;;;3.20;;
32172;SDS011;18679;45.190;5.722;2023-10-08T14:32:07;8.00;;;3.20;;
32172;SDS011;18679;45.190;5.722;2023-10-08T14:35:09;7.47;;;3.05;;
32172;SDS011;18679;45.190;5.722;2023-10-08T14:38:28;8.50;;;3.15;;
32172;SDS011;18679;45.190;5.722;2023-10-08T14:41:52;9.35;;;4.63;;
32172;SDS011;18679;45.190;5.722;2023-10-08T14:45:11;10.68;;;3.58;;
32172;SDS011;18679;45.190;5.722;2023-10-08T14:48:13;10.45;;;2.90;;
32172;SDS011;18679;45.190;5.722;2023-10-08T14:51:14;6.70;;;2.95;;
32172;SDS011;18679;45.190;5.722;2023-10-08T14:54:19;7.72;;;3.10;;
32172;SDS011;18679;45.190;5.722;2023-10-08T14:57:21;7.05;;;2.63;;
32172;SDS011;18679;45.190;5.722;2023-10-08T15:00:21;9.70;;;4.32;;
32172;SDS011;18679;45.190;5.722;2023-10-08T15:03:24;8.65;;;2.78;;
32172;SDS011;18679;45.190;5.722;2023-10-08T15:06:27;5.75;;;2.47;;
32172;SDS011;18679;45.190;5.722;2023-10-08T15:09:28;6.85;;;3.05;;
32172;SDS011;18679;45.190;5.722;2023-10-08T15:12:30;11.02;;;3.38;;
32172;SDS011;18679;45.190;5.722;2023-10-08T15:15:35;8.65;;;3.08;;
32172;SDS011;18679;45.190;5.722;2023-10-08T15:18:35;7.18;;;3.03;;
32172;SDS011;18679;45.190;5.722;2023-10-08T15:21:42;7.80;;;2.90;;
32172;SDS011;18679;45.190;5.722;2023-10-08T15:24:43;7.43;;;3.28;;
32172;SDS011;18679;45.190;5.722;2023-10-08T15:27:45;9.48;;;2.72;;
32172;SDS011;18679;45.190;5.722;2023-10-08T15:30:49;7.82;;;3.35;;
32172;SDS011;18679;45.190;5.722;2023-10-08T15:33:50;9.02;;;3.47;;
32172;SDS011;18679;45.190;5.722;2023-10-08T15:36:54;10.90;;;3.80;;
32172;SDS011;18679;45.190;5.722;2023-10-08T15:39:56;10.23;;;3.53;;
32172;SDS011;18679;45.190;5.722;2023-10-08T15:42:57;10.93;;;3.30;;
32172;SDS011;18679;45.190;5.722;2023-10-08T15:45:58;22.80;;;5.22;;
32172;SDS011;18679;45.190;5.722;2023-10-08T15:48:59;7.28;;;3.28;;
32172;SDS011;18679;45.190;5.722;2023-10-08T15:52:03;9.45;;;3.35;;
32172;SDS011;18679;45.190;5.722;2023-10-08T15:55:05;12.60;;;3.47;;
32172;SDS011;18679;45.190;5.722;2023-10-08T15:58:07;7.45;;;3.78;;
32172;SDS011;18679;45.190;5.722;2023-10-08T16:01:07;14.15;;;3.05;;
32172;SDS011;18679;45.190;5.722;2023-10-08T16:04:08;6.63;;;2.92;;
32172;SDS011;18679;45.190;5.722;2023-10-08T16:07:10;9.02;;;3.28;;
32172;SDS011;18679;45.190;5.722;2023-10-08T16:10:14;11.48;;;3.10;;
32172;SDS011;18679;45.190;5.722;2023-10-08T16:13:14;12.43;;;3.13;;
32172;SDS011;18679;45.190;5.722;2023-10-08T16:16:15;9.70;;;2.95;;
32172;SDS011;18679;45.190;5.722;2023-10-08T16:19:16;6.35;;;3.20;;
32172;SDS011;18679;45.190;5.722;2023-10-08T16:22:18;7.05;;;3.13;;
32172;SDS011;18679;45.190;5.722;2023-10-08T16:25:19;12.82;;;3.67;;
32172;SDS011;18679;45.190;5.722;2023-10-08T16:28:20;12.48;;;3.50;;
32172;SDS011;18679;45.190;5.722;2023-10-08T16:31:21;14.43;;;3.85;;
32172;SDS011;18679;45.190;5.722;2023-10-08T16:34:22;9.98;;;4.47;;
32172;SDS011;18679;45.190;5.722;2023-10-08T16:37:23;7.65;;;3.80;;
32172;SDS011;18679;45.190;5.722;2023-10-08T16:40:23;12.88;;;3.70;;
32172;SDS011;18679;45.190;5.722;2023-10-08T16:43:24;11.52;;;3.70;;
32172;SDS011;18679;45.190;5.722;2023-10-08T16:46:32;9.93;;;3.53;;
32172;SDS011;18679;45.190;5.722;2023-10-08T16:49:33;7.65;;;3.50;;
32172;SDS011;18679;45.190;5.722;2023-10-08T16:52:34;10.73;;;3.75;;
32172;SDS011;18679;45.190;5.722;2023-10-08T16:55:35;11.15;;;3.50;;
32172;SDS011;18679;45.190;5.722;2023-10-08T16:58:36;7.53;;;3.10;;
32172;SDS011;18679;45.190;5.722;2023-10-08T17:01:37;11.68;;;3.25;;
32172;SDS011;18679;45.190;5.722;2023-10-08T17:04:38;8.05;;;3.00;;
32172;SDS011;18679;45.190;5.722;2023-10-08T17:07:42;10.07;;;3.35;;
32172;SDS011;18679;45.190;5.722;2023-10-08T17:10:44;6.90;;;3.65;;
32172;SDS011;18679;45.190;5.722;2023-10-08T17:13:45;10.35;;;4.53;;
32172;SDS011;18679;45.190;5.722;2023-10-08T17:16:46;15.63;;;3.70;;
32172;SDS011;18679;45.190;5.722;2023-10-08T17:19:46;7.30;;;3.08;;
32172;SDS011;18679;45.190;5.722;2023-10-08T17:22:49;13.07;;;5.70;;
32172;SDS011;18679;45.190;5.722;2023-10-08T17:25:50;8.73;;;3.97;;
32172;SDS011;18679;45.190;5.722;2023-10-08T17:28:51;8.85;;;3.88;;
32172;SDS011;18679;45.190;5.722;2023-10-08T17:31:52;13.73;;;4.07;;
32172;SDS011;18679;45.190;5.722;2023-10-08T17:34:54;11.95;;;3.35;;
32172;SDS011;18679;45.190;5.722;2023-10-08T17:37:55;11.80;;;4.82;;
32172;SDS011;18679;45.190;5.722;2023-10-08T17:40:55;9.10;;;3.55;;
32172;SDS011;18679;45.190;5.722;2023-10-08T17:43:56;9.70;;;3.75;;
32172;SDS011;18679;45.190;5.722;2023-10-08T17:46:57;11.32;;;3.58;;
32172;SDS011;18679;45.190;5.722;2023-10-08T17:49:58;11.68;;;3.97;;
32172;SDS011;18679;45.190;5.722;2023-10-08T17:52:59;9.27;;;4.32;;
32172;SDS011;18679;45.190;5.722;2023-10-08T17:56:01;9.10;;;3.60;;
32172;SDS011;18679;45.190;5.722;2023-10-08T17:59:04;13.65;;;4.70;;
32172;SDS011;18679;45.190;5.722;2023-10-08T18:02:12;13.45;;;5.13;;
32172;SDS011;18679;45.190;5.722;2023-10-08T18:05:13;15.27;;;4.82;;
32172;SDS011;18679;45.190;5.722;2023-10-08T18:08:17;13.20;;;5.45;;
32172;SDS011;18679;45.190;5.722;2023-10-08T18:11:19;13.25;;;4.70;;
32172;SDS011;18679;45.190;5.722;2023-10-08T18:14:20;15.70;;;5.72;;
32172;SDS011;18679;45.190;5.722;2023-10-08T18:17:22;12.75;;;5.05;;
32172;SDS011;18679;45.190;5.722;2023-10-08T18:20:23;20.33;;;6.38;;
32172;SDS011;18679;45.190;5.722;2023-10-08T18:23:33;19.08;;;5.55;;
32172;SDS011;18679;45.190;5.722;2023-10-08T18:26:36;15.98;;;5.68;;
32172;SDS011;18679;45.190;5.722;2023-10-08T18:29:41;21.98;;;6.05;;
32172;SDS011;18679;45.190;5.722;2023-10-08T18:32:42;14.70;;;5.97;;
32172;SDS011;18679;45.190;5.722;2023-10-08T18:35:43;20.83;;;6.32;;
32172;SDS011;18679;45.190;5.722;2023-10-08T18:38:44;12.05;;;5.18;;
32172;SDS011;18679;45.190;5.722;2023-10-08T18:41:45;15.02;;;4.45;;
32172;SDS011;18679;45.190;5.722;2023-10-08T18:44:46;11.18;;;4.15;;
32172;SDS011;18679;45.190;5.722;2023-10-08T18:47:47;11.95;;;3.75;;
32172;SDS011;18679;45.190;5.722;2023-10-08T18:50:49;12.77;;;3.92;;
32172;SDS011;18679;45.190;5.722;2023-10-08T18:53:54;14.63;;;5.43;;
32172;SDS011;18679;45.190;5.722;2023-10-08T18:56:56;15.70;;;6.03;;
32172;SDS011;18679;45.190;5.722;2023-10-08T19:00:02;9.32;;;4.60;;
32172;SDS011;18679;45.190;5.722;2023-10-08T19:03:09;24.20;;;6.28;;
32172;SDS011;18679;45.190;5.722;2023-10-08T19:06:10;10.15;;;4.93;;
32172;SDS011;18679;45.190;5.722;2023-10-08T19:09:12;11.85;;;4.25;;
32172;SDS011;18679;45.190;5.722;2023-10-08T19:12:13;14.88;;;3.97;;